createdAt,value
2018-12-11T00:02:04.780Z,16.23
2018-12-11T00:05:05.771Z,20.95
2018-12-11T00:08:06.506Z,14.40
2018-12-11T00:11:06.990Z,15.75
2018-12-11T00:14:07.720Z,13.55
2018-12-11T00:17:09.738Z,13.50
2018-12-11T00:20:10.473Z,5.00
2018-12-11T00:23:11.468Z,13.28
2018-12-11T00:26:12.203Z,15.00
2018-12-11T00:29:12.682Z,10.40
2018-12-11T00:32:13.676Z,13.18
2018-12-11T00:35:14.413Z,8.63
2018-12-11T00:38:16.175Z,12.75
2018-12-11T00:41:16.907Z,9.85
2018-12-11T00:44:17.644Z,6.65
2018-12-11T00:47:18.383Z,17.70
2018-12-11T00:50:20.395Z,13.85
2018-12-11T00:53:21.643Z,11.80
2018-12-11T00:56:22.641Z,13.98
2018-12-11T00:59:23.373Z,10.32
2018-12-11T01:02:24.619Z,9.98
2018-12-11T01:05:26.124Z,9.08
2018-12-11T01:08:27.115Z,18.20
2018-12-11T01:11:27.849Z,7.60
2018-12-11T01:14:27.627Z,5.62
2018-12-11T01:17:28.812Z,9.48
2018-12-11T01:20:29.289Z,17.50
2018-12-11T01:23:30.025Z,8.18
2018-12-11T01:26:30.764Z,7.08
2018-12-11T01:29:31.754Z,10.20
2018-12-11T01:32:32.491Z,16.95
2018-12-11T01:35:33.227Z,10.50
2018-12-11T01:38:33.963Z,10.38
2018-12-11T01:41:34.698Z,15.13
2018-12-11T01:44:35.441Z,14.23
2018-12-11T01:47:36.170Z,6.33
2018-12-11T01:50:36.907Z,9.08
2018-12-11T01:53:38.669Z,5.20
2018-12-11T01:56:39.408Z,4.37
2018-12-11T01:59:40.394Z,4.65
2018-12-11T02:02:41.138Z,9.63
2018-12-11T02:05:41.612Z,12.75
2018-12-11T02:08:42.346Z,13.25
2018-12-11T02:11:43.349Z,4.70
2018-12-11T02:14:44.589Z,10.40
2018-12-11T02:17:45.323Z,9.25
2018-12-11T02:20:46.313Z,11.25
2018-12-11T02:23:48.076Z,10.98
2018-12-11T02:26:48.816Z,14.05
2018-12-11T02:29:50.058Z,3.67
2018-12-11T02:32:50.542Z,7.20
2018-12-11T02:35:51.272Z,8.23
2018-12-11T02:38:52.268Z,11.93
2018-12-11T02:41:54.282Z,9.60
2018-12-11T02:44:54.763Z,12.40
2018-12-11T02:47:58.572Z,7.92
2018-12-11T02:50:59.051Z,7.87
2018-12-11T02:53:59.787Z,4.65
2018-12-11T02:57:00.267Z,4.05
2018-12-11T03:00:02.033Z,3.95
2018-12-11T03:02:59.182Z,9.90
2018-12-11T03:05:59.914Z,3.83
2018-12-11T03:09:00.656Z,4.28
2018-12-11T03:12:01.384Z,5.22
2018-12-11T03:15:02.125Z,15.35
2018-12-11T03:18:02.621Z,11.18
2018-12-11T03:21:03.601Z,11.48
2018-12-11T03:24:04.846Z,13.70
2018-12-11T03:27:06.092Z,10.30
2018-12-11T03:30:06.832Z,13.35
2018-12-11T03:33:07.569Z,17.75
2018-12-11T03:36:08.301Z,9.23
2018-12-11T03:39:09.035Z,7.08
2018-12-11T03:42:09.769Z,6.22
2018-12-11T03:44:59.244Z,14.83
2018-12-11T03:48:00.237Z,11.55
2018-12-11T03:51:01.227Z,17.37
2018-12-11T03:54:05.803Z,4.78
2018-12-11T03:57:07.052Z,14.73
2018-12-11T04:00:07.786Z,7.05
2018-12-11T04:03:08.525Z,8.30
2018-12-11T04:06:10.026Z,16.62
2018-12-11T04:09:10.764Z,15.25
2018-12-11T04:12:11.497Z,11.40
2018-12-11T04:15:13.518Z,14.45
2018-12-11T04:18:14.250Z,6.95
2018-12-11T04:21:14.986Z,10.08
2018-12-11T04:24:15.554Z,5.90
2018-12-11T04:27:16.201Z,6.87
2018-12-11T04:30:18.224Z,4.53
2018-12-11T04:33:07.433Z,7.17
2018-12-11T04:36:08.174Z,4.20
2018-12-11T04:39:09.163Z,15.25
2018-12-11T04:42:14.772Z,11.78
2018-12-11T04:45:15.758Z,7.62
2018-12-11T04:48:18.027Z,13.25
2018-12-11T04:51:19.020Z,17.15
2018-12-11T04:54:19.498Z,10.90
2018-12-11T04:57:20.234Z,15.55
2018-12-11T05:00:20.968Z,4.53
2018-12-11T05:03:10.189Z,13.78
2018-12-11T05:06:11.178Z,8.68
2018-12-11T05:09:11.915Z,5.92
2018-12-11T05:12:12.905Z,11.80
2018-12-11T05:15:09.803Z,8.20
2018-12-11T05:18:10.537Z,10.93
2018-12-11T05:21:11.274Z,12.43
2018-12-11T05:24:12.269Z,10.68
2018-12-11T05:27:07.339Z,12.30
2018-12-11T05:30:08.107Z,15.68
2018-12-11T05:33:08.841Z,16.95
2018-12-11T05:36:10.344Z,3.35
2018-12-11T05:39:10.830Z,16.35
2018-12-11T05:42:08.746Z,3.62
2018-12-11T05:45:09.483Z,4.08
2018-12-11T05:48:10.471Z,9.40
2018-12-11T05:51:14.798Z,16.73
2018-12-11T05:54:15.279Z,11.68
2018-12-11T05:57:16.010Z,15.75
2018-12-11T06:00:16.750Z,13.53
2018-12-11T06:03:17.486Z,12.35
2018-12-11T06:06:19.243Z,9.80
2018-12-11T06:09:19.723Z,5.67
2018-12-11T06:12:21.496Z,12.58
2018-12-11T06:15:22.219Z,13.75
2018-12-11T06:18:22.954Z,8.15
2018-12-11T06:21:23.693Z,8.98
2018-12-11T06:24:24.425Z,5.15
2018-12-11T06:27:25.161Z,7.25
2018-12-11T06:30:25.902Z,5.55
2018-12-11T06:33:27.657Z,4.72
2018-12-11T06:36:29.416Z,6.05
2018-12-11T06:39:30.154Z,3.75
2018-12-11T06:42:31.146Z,11.75
2018-12-11T06:45:31.883Z,14.00
2018-12-11T06:48:36.213Z,9.20
2018-12-11T06:51:37.191Z,9.48
2018-12-11T06:54:37.935Z,6.92
2018-12-11T06:57:38.923Z,8.23
2018-12-11T07:00:42.730Z,5.58
2018-12-11T07:03:43.473Z,8.75
2018-12-11T07:06:37.553Z,10.63
2018-12-11T07:09:38.029Z,4.87
2018-12-11T07:12:38.761Z,12.43
2018-12-11T07:15:39.754Z,13.05
2018-12-11T07:18:40.233Z,6.85
2018-12-11T07:21:40.712Z,9.23
2018-12-11T07:24:41.450Z,9.83
2018-12-11T07:27:43.979Z,12.20
2018-12-11T07:30:44.972Z,14.25
2018-12-11T07:33:50.764Z,18.87
2018-12-11T07:36:45.927Z,4.80
2018-12-11T07:39:41.928Z,8.83
2018-12-11T07:42:43.818Z,4.42
2018-12-11T07:45:44.813Z,4.72
2018-12-11T07:48:46.572Z,8.18
2018-12-11T07:51:48.330Z,9.68
2018-12-11T07:54:49.077Z,16.62
2018-12-11T07:57:51.341Z,12.03
2018-12-11T08:00:52.075Z,11.80
2018-12-11T08:03:56.113Z,11.10
2018-12-11T08:06:55.854Z,8.93
2018-12-11T08:09:52.906Z,8.80
2018-12-11T08:12:53.487Z,13.30
2018-12-11T08:15:53.963Z,6.70
2018-12-11T08:18:54.700Z,4.20
2018-12-11T08:21:55.947Z,25.57
2018-12-11T08:24:56.683Z,32.40
2018-12-11T08:27:59.466Z,25.77
2018-12-11T08:30:59.943Z,12.85
2018-12-11T08:34:05.546Z,15.78
2018-12-11T08:37:06.793Z,23.67
2018-12-11T08:40:08.041Z,23.22
2018-12-11T08:43:08.525Z,12.13
2018-12-11T08:46:09.516Z,6.53
2018-12-11T08:49:11.273Z,20.27
2018-12-11T08:52:12.008Z,19.45
2018-12-11T08:55:13.002Z,17.55
2018-12-11T08:58:13.738Z,6.28
2018-12-11T09:01:14.220Z,6.20
2018-12-11T09:04:14.957Z,18.75
2018-12-11T09:07:15.691Z,7.60
2018-12-11T09:10:16.434Z,5.92
2018-12-11T09:13:17.161Z,7.53
2018-12-11T09:16:17.642Z,14.40
2018-12-11T09:19:18.379Z,18.82
2018-12-11T09:22:20.673Z,7.20
2018-12-11T09:25:22.410Z,11.10
2018-12-11T09:28:22.894Z,20.08
2018-12-11T09:31:23.373Z,16.73
2018-12-11T09:34:25.130Z,9.68
2018-12-11T09:37:26.122Z,10.48
2018-12-11T09:40:26.605Z,11.65
2018-12-11T09:43:27.593Z,9.80
2018-12-11T09:46:28.848Z,19.75
2018-12-11T09:49:30.092Z,18.07
2018-12-11T09:55:48.974Z,9.58
2018-12-11T09:58:49.963Z,9.65
2018-12-11T10:01:50.701Z,11.65
2018-12-11T10:04:51.948Z,16.45
2018-12-11T10:07:53.709Z,10.05
2018-12-11T10:10:46.764Z,22.98
2018-12-11T10:13:48.525Z,23.73
2018-12-11T10:16:50.026Z,7.65
2018-12-11T10:19:50.764Z,12.88
2018-12-11T10:22:51.505Z,11.22
2018-12-11T10:25:52.243Z,6.33
2018-12-11T10:28:52.713Z,17.50
2018-12-11T10:31:53.447Z,9.33
2018-12-11T10:34:50.319Z,8.08
2018-12-11T10:37:50.827Z,9.83
2018-12-11T10:40:51.568Z,11.25
2018-12-11T10:43:52.554Z,14.73
2018-12-11T10:46:53.312Z,9.85
2018-12-11T10:49:53.785Z,8.25
2018-12-11T10:52:54.507Z,7.85
2018-12-11T10:55:56.010Z,13.93
2018-12-11T10:58:57.515Z,19.12
2018-12-11T11:02:01.072Z,11.93
2018-12-11T11:05:01.807Z,20.02
2018-12-11T11:08:03.049Z,12.85
2018-12-11T11:11:06.359Z,6.37
2018-12-11T11:14:07.082Z,21.40
2018-12-11T11:17:10.123Z,9.13
2018-12-11T11:20:10.859Z,8.50
2018-12-11T11:23:11.852Z,13.93
2018-12-11T11:26:12.590Z,17.15
2018-12-11T11:29:13.322Z,32.48
2018-12-11T11:32:14.056Z,8.78
2018-12-11T11:35:17.619Z,8.93
2018-12-11T11:38:18.090Z,8.25
2018-12-11T11:41:18.571Z,17.82
2018-12-11T11:44:22.892Z,10.85
2018-12-11T11:47:23.629Z,16.97
2018-12-11T11:50:24.359Z,7.40
2018-12-11T11:53:25.099Z,8.58
2018-12-11T11:56:26.096Z,14.63
2018-12-11T11:59:26.825Z,25.20
2018-12-11T12:02:33.232Z,21.87
2018-12-11T12:05:28.042Z,14.98
2018-12-11T12:08:28.526Z,17.35
2018-12-11T12:11:28.746Z,8.55
2018-12-11T12:14:29.226Z,13.78
2018-12-11T12:17:29.964Z,8.35
2018-12-11T12:20:27.114Z,8.38
2018-12-11T12:23:27.869Z,9.80
2018-12-11T12:26:28.586Z,6.50
2018-12-11T12:29:29.321Z,6.62
2018-12-11T12:32:30.079Z,13.93
2018-12-11T12:35:31.051Z,11.80
2018-12-11T12:38:31.784Z,6.62
2018-12-11T12:41:32.778Z,11.75
2018-12-11T12:44:34.039Z,7.70
2018-12-11T12:47:34.766Z,13.08
2018-12-11T12:50:35.755Z,10.85
2018-12-11T12:53:36.238Z,13.15
2018-12-11T12:56:37.226Z,11.73
2018-12-11T12:59:37.961Z,10.78
2018-12-11T13:02:39.726Z,8.33
2018-12-11T13:05:44.813Z,9.08
2018-12-11T13:08:45.556Z,8.28
2018-12-11T13:11:46.282Z,14.90
2018-12-11T13:14:49.023Z,18.05
2018-12-11T13:17:48.282Z,7.40
2018-12-11T13:20:49.256Z,15.20
2018-12-11T13:23:51.021Z,14.70
2018-12-11T13:26:53.034Z,15.18
2018-12-11T13:29:55.569Z,17.70
2018-12-11T13:32:56.297Z,20.77
2018-12-11T13:35:58.057Z,14.75
2018-12-11T13:38:58.793Z,10.05
2018-12-11T13:41:59.532Z,14.68
2018-12-11T13:45:00.264Z,14.33
2018-12-11T13:48:00.745Z,8.00
2018-12-11T13:51:03.535Z,17.75
2018-12-11T13:54:04.009Z,11.28
2018-12-11T13:57:05.517Z,13.10
2018-12-11T14:00:07.274Z,7.87
2018-12-11T14:03:07.756Z,9.63
2018-12-11T14:06:09.515Z,13.03
2018-12-11T14:09:10.250Z,11.50
2018-12-11T14:15:33.995Z,11.57
2018-12-11T14:18:37.565Z,10.82
2018-12-11T14:21:39.049Z,18.73
2018-12-11T14:24:39.535Z,15.48
2018-12-11T14:27:41.035Z,13.15
2018-12-11T14:30:41.770Z,9.28
2018-12-11T14:33:55.058Z,11.90
2018-12-11T14:36:57.577Z,6.03
2018-12-11T14:40:00.874Z,6.65
2018-12-11T14:43:03.924Z,11.90
2018-12-11T14:46:06.700Z,11.38
2018-12-11T14:49:13.590Z,8.98
2018-12-11T14:52:19.730Z,9.38
2018-12-11T14:55:22.223Z,12.93
2018-12-11T14:58:24.753Z,5.15
2018-12-11T15:01:26.254Z,10.30
2018-12-11T15:04:29.293Z,16.10
2018-12-11T15:07:30.805Z,11.90
2018-12-11T15:10:34.869Z,12.95
2018-12-11T15:13:35.849Z,12.25
2018-12-11T15:16:36.850Z,10.55
2018-12-11T15:19:37.837Z,16.87
2018-12-11T15:22:38.833Z,15.70
2018-12-11T15:25:39.569Z,9.80
2018-12-11T15:31:53.834Z,10.00
2018-12-11T15:34:54.829Z,8.60
2018-12-11T15:37:55.560Z,6.33
2018-12-11T15:44:11.116Z,8.15
2018-12-11T15:47:12.879Z,14.00
2018-12-11T15:50:14.632Z,17.20
2018-12-11T15:53:15.375Z,8.90
2018-12-11T15:56:17.400Z,23.38
2018-12-11T15:59:19.922Z,21.10
2018-12-11T16:02:24.505Z,13.35
2018-12-11T16:05:25.237Z,10.80
2018-12-11T16:08:26.477Z,9.65
2018-12-11T16:11:27.470Z,14.45
2018-12-11T16:14:28.460Z,13.00
2018-12-11T16:18:26.537Z,8.65
2018-12-11T16:21:28.306Z,8.43
2018-12-11T16:24:29.563Z,7.75
2018-12-11T16:27:30.540Z,16.00
2018-12-11T16:30:32.296Z,6.70
2018-12-11T16:33:33.037Z,6.08
2018-12-11T16:36:34.794Z,7.78
2018-12-11T16:39:37.331Z,21.10
2018-12-11T16:42:44.743Z,13.15
2018-12-11T16:45:47.243Z,18.05
2018-12-11T16:48:47.983Z,14.95
2018-12-11T16:51:50.253Z,12.75
2018-12-11T16:54:50.735Z,14.00
2018-12-11T17:01:05.782Z,14.00
2018-12-11T17:04:06.764Z,13.88
2018-12-11T17:07:07.501Z,13.72
2018-12-11T17:10:08.494Z,15.03
2018-12-11T17:13:10.766Z,17.67
2018-12-11T17:16:11.502Z,11.97
2018-12-11T17:19:12.234Z,16.50
2018-12-11T17:22:14.000Z,23.30
2018-12-11T17:25:14.741Z,13.22
2018-12-11T17:28:12.395Z,10.30
2018-12-11T17:31:13.901Z,12.90
2018-12-11T17:34:14.892Z,12.23
2018-12-11T17:37:15.887Z,18.57
2018-12-11T17:40:17.646Z,12.98
2018-12-11T17:43:14.544Z,21.23
2018-12-11T17:46:17.071Z,14.80
2018-12-11T17:49:19.342Z,13.60
2018-12-11T17:52:20.331Z,21.35
2018-12-11T17:55:22.089Z,23.22
2018-12-11T17:58:23.097Z,22.20
2018-12-11T18:01:24.845Z,26.48
2018-12-11T18:07:40.399Z,23.07
2018-12-11T18:10:42.154Z,19.12
2018-12-11T18:13:46.229Z,26.90
2018-12-11T18:16:50.295Z,17.42
2018-12-11T18:19:55.630Z,18.40
2018-12-11T18:22:57.643Z,23.22
2018-12-11T18:25:59.930Z,20.10
2018-12-11T18:29:03.243Z,19.02
2018-12-11T18:31:58.066Z,21.37
2018-12-11T18:35:08.036Z,27.17
2018-12-11T18:38:01.869Z,24.70
2018-12-11T18:41:03.088Z,25.70
2018-12-11T18:43:56.652Z,24.95
2018-12-11T18:46:58.931Z,20.70
2018-12-11T18:50:04.026Z,32.00
2018-12-11T18:53:07.571Z,20.02
2018-12-11T18:56:09.074Z,30.60
2018-12-11T18:59:15.436Z,25.72
2018-12-11T19:02:18.503Z,26.07
2018-12-11T19:05:19.480Z,33.65
2018-12-11T19:08:22.766Z,37.53
2018-12-11T19:11:23.757Z,20.72
2018-12-11T19:14:28.335Z,27.87
2018-12-11T19:17:41.617Z,28.00
2018-12-11T19:20:43.133Z,26.50
2018-12-11T19:23:47.956Z,27.27
2018-12-11T19:26:49.196Z,36.38
2018-12-11T19:29:49.930Z,18.98
2018-12-11T19:32:50.927Z,34.70
2018-12-11T19:35:51.933Z,20.02
2018-12-11T19:38:54.016Z,26.57
2018-12-11T19:41:59.535Z,33.55
2018-12-11T19:45:02.349Z,31.87
2018-12-11T19:48:02.032Z,28.42
2018-12-11T19:51:02.770Z,26.90
2018-12-11T19:54:04.270Z,32.98
2018-12-11T19:57:05.546Z,35.13
2018-12-11T20:00:07.455Z,34.58
2018-12-11T20:03:11.856Z,31.10
2018-12-11T20:06:17.453Z,35.35
2018-12-11T20:09:10.765Z,29.50
2018-12-11T20:12:11.503Z,25.80
2018-12-11T20:15:12.234Z,27.05
2018-12-11T20:18:13.484Z,26.12
2018-12-11T20:21:14.987Z,22.50
2018-12-11T20:24:16.497Z,35.58
2018-12-11T20:27:10.069Z,25.95
2018-12-11T20:30:11.063Z,31.17
2018-12-11T20:33:12.571Z,27.05
2018-12-11T20:36:14.835Z,30.32
2018-12-11T20:39:17.866Z,23.83
2018-12-11T20:42:19.118Z,27.70
2018-12-11T20:45:21.192Z,30.90
2018-12-11T20:48:22.126Z,30.60
2018-12-11T20:51:22.859Z,25.02
2018-12-11T20:54:24.371Z,27.05
2018-12-11T20:57:27.668Z,33.90
2018-12-11T21:00:31.467Z,31.90
2018-12-11T21:03:32.976Z,28.20
2018-12-11T21:06:33.973Z,22.02
2018-12-11T21:09:35.475Z,35.10
2018-12-11T21:12:36.983Z,27.30
2018-12-11T21:15:38.735Z,26.77
2018-12-11T21:18:39.473Z,28.75
2018-12-11T21:21:40.715Z,20.72
2018-12-11T21:24:41.979Z,25.72
2018-12-11T21:27:43.724Z,21.27
2018-12-11T21:30:44.461Z,29.67
2018-12-11T21:33:46.248Z,22.67
2018-12-11T21:36:46.955Z,19.00
2018-12-11T21:39:48.974Z,30.32
2018-12-11T21:42:50.221Z,33.75
2018-12-11T21:45:53.004Z,31.40
2018-12-11T21:48:58.094Z,25.60
2018-12-11T21:51:59.599Z,34.50
2018-12-11T21:55:00.846Z,35.08
2018-12-11T21:58:01.585Z,33.75
2018-12-11T22:01:02.829Z,29.15
2018-12-11T22:04:03.567Z,29.50
2018-12-11T22:07:04.556Z,32.17
2018-12-11T22:10:05.295Z,39.23
2018-12-11T22:13:09.102Z,28.52
2018-12-11T22:16:10.859Z,40.40
2018-12-11T22:19:12.622Z,30.97
2018-12-11T22:22:13.355Z,34.45
2018-12-11T22:25:16.139Z,31.00
2018-12-11T22:28:16.873Z,37.90
2018-12-11T22:31:18.635Z,27.37
2018-12-11T22:34:20.904Z,24.75
2018-12-11T22:37:21.390Z,36.50
2018-12-11T22:40:21.870Z,38.53
2018-12-11T22:43:22.355Z,24.10
2018-12-11T22:46:23.091Z,25.27
2018-12-11T22:49:25.102Z,27.17
2018-12-11T22:52:25.508Z,29.72
2018-12-11T22:55:27.595Z,26.57
2018-12-11T22:58:28.845Z,21.80
2018-12-11T23:01:29.579Z,23.27
2018-12-11T23:04:31.595Z,31.40
2018-12-11T23:07:32.585Z,35.35
2018-12-11T23:10:33.321Z,36.58
2018-12-11T23:13:34.057Z,30.95
2018-12-11T23:16:31.998Z,32.40
2018-12-11T23:19:32.974Z,43.33
2018-12-11T23:22:31.658Z,39.18
2018-12-11T23:25:32.140Z,31.80
2018-12-11T23:28:33.900Z,24.50
2018-12-11T23:31:34.381Z,37.03
2018-12-11T23:34:35.116Z,42.55
2018-12-11T23:37:35.600Z,43.87
2018-12-11T23:40:36.843Z,42.78
2018-12-11T23:43:37.586Z,35.23
2018-12-11T23:46:38.316Z,29.42
2018-12-11T23:49:38.794Z,39.13
2018-12-11T23:52:40.555Z,40.88
2018-12-11T23:55:41.290Z,26.70
2018-12-11T23:58:42.027Z,37.85
